Time;durP1;ratioP1;P1;durP2;ratioP2;P2;SDS_P1;SDS_P2;PMS_P1;PMS_P2;Temp;Humidity;BMP_temperature;BMP_pressure;BME280_temperature;BME280_humidity;BME280_pressure;Samples;Min_cycle;Max_cycle;Signal;HPM_P1;HPM_P2
2022/10/11 00:00:08;;;;;;;15.85;10.60;;;;;;;7.67;71.46;97587.36;1763331;81;25271;-77
2022/10/11 00:02:36;;;;;;;15.50;11.08;;;;;;;7.64;71.58;97593.10;1762711;81;25262;-76
2022/10/11 00:05:03;;;;;;;13.78;9.83;;;;;;;7.63;71.57;97593.29;1763252;81;25753;-77
2022/10/11 00:07:29;;;;;;;17.57;11.10;;;;;;;7.62;71.77;97590.28;1762979;81;27374;-77
2022/10/11 00:09:56;;;;;;;17.67;11.65;;;;;;;7.55;71.77;97580.30;1763085;81;25741;-79
2022/10/11 00:12:22;;;;;;;16.23;10.98;;;;;;;7.56;71.88;97591.37;1763153;81;25725;-78
2022/10/11 00:14:49;;;;;;;18.02;11.22;;;;;;;7.56;71.98;97588.68;1763073;81;25811;-76
2022/10/11 00:17:15;;;;;;;17.12;10.80;;;;;;;7.59;72.04;97582.11;1763132;81;25660;-77
2022/10/11 00:19:42;;;;;;;16.55;10.68;;;;;;;7.63;72.01;97587.91;1763214;81;27411;-76
2022/10/11 00:22:09;;;;;;;13.60;10.50;;;;;;;7.68;72.00;97585.51;1763011;81;25938;-79
2022/10/11 00:24:35;;;;;;;16.32;10.65;;;;;;;7.72;72.10;97586.80;1763153;81;25743;-79
2022/10/11 00:27:02;;;;;;;17.73;11.55;;;;;;;7.69;72.08;97587.17;1763093;81;25747;-79
2022/10/11 00:29:28;;;;;;;17.65;11.48;;;;;;;7.73;72.12;97588.47;1763144;81;25702;-77
2022/10/11 00:31:55;;;;;;;14.03;10.23;;;;;;;7.74;72.27;97590.11;1762778;81;27423;-76
2022/10/11 00:34:21;;;;;;;16.62;11.53;;;;;;;7.72;72.28;97585.46;1763167;81;25772;-77
2022/10/11 00:36:48;;;;;;;15.75;11.38;;;;;;;7.74;72.32;97588.77;1763178;81;25753;-77
2022/10/11 00:39:14;;;;;;;18.73;11.20;;;;;;;7.77;72.45;97591.08;1763059;81;25713;-76
2022/10/11 00:41:41;;;;;;;18.45;10.75;;;;;;;7.72;72.36;97586.30;1763095;81;25808;-79
2022/10/11 00:44:15;;;;;;;16.27;11.15;;;;;;;7.72;72.49;97586.30;1763009;81;28208;-77
2022/10/11 00:46:50;;;;;;;18.52;11.90;;;;;;;7.72;72.51;97588.98;1762980;81;25692;-77
2022/10/11 00:49:31;;;;;;;14.65;10.45;;;;;;;7.75;72.61;97587.75;1760052;81;25727;-78
2022/10/11 00:52:22;;;;;;;19.73;11.68;;;;;;;7.75;72.77;97587.75;1760052;81;25801;-77
2022/10/11 00:54:50;;;;;;;14.35;10.18;;;;;;;7.76;72.84;97586.73;1759833;81;25718;-77
2022/10/11 00:57:20;;;;;;;17.00;10.18;;;;;;;7.77;73.09;97585.70;1759478;81;27330;-77
2022/10/11 00:59:50;;;;;;;13.60;10.28;;;;;;;7.80;73.17;97584.00;1759425;81;25756;-76
2022/10/11 01:02:18;;;;;;;13.90;10.75;;;;;;;7.86;73.12;97588.59;1759567;81;25760;-77
2022/10/11 01:04:46;;;;;;;14.60;10.50;;;;;;;7.92;73.14;97587.86;1759680;81;25703;-76
2022/10/11 01:07:13;;;;;;;17.35;10.18;;;;;;;7.96;73.22;97589.15;1759722;81;25664;-76
2022/10/11 01:09:39;;;;;;;20.48;10.80;;;;;;;8.02;73.44;97589.72;1759622;81;27435;-77
2022/10/11 01:12:19;;;;;;;16.97;11.60;;;;;;;8.05;73.30;97580.45;1759451;81;25737;-76
2022/10/11 01:15:09;;;;;;;16.00;11.63;;;;;;;8.09;73.28;97586.57;1755398;81;25690;-77
2022/10/11 01:18:11;;;;;;;15.43;11.45;;;;;;;8.14;73.28;97590.05;1756210;81;25746;-76
2022/10/11 01:21:11;;;;;;;17.10;11.15;;;;;;;8.16;73.36;97584.80;1755793;81;25811;-77
2022/10/11 01:24:04;;;;;;;13.00;10.10;;;;;;;8.18;73.38;97585.45;1758284;81;27543;-76
2022/10/11 01:27:12;;;;;;;16.85;9.08;;;;;;;8.19;73.43;97583.08;1759355;81;25700;-76
2022/10/11 01:30:24;;;;;;;12.70;9.48;;;;;;;8.18;73.50;97577.37;1659467;85;25861;-76
2022/10/11 01:33:08;;;;;;;14.60;9.20;;;;;;;8.21;73.51;97583.69;1659325;86;25758;-77
2022/10/11 01:36:26;;;;;;;12.88;8.60;;;;;;;8.21;73.71;97581.55;1656047;86;25632;-76
2022/10/11 01:38:54;;;;;;;12.88;8.75;;;;;;;8.27;73.49;97581.59;1655709;86;27767;-77
2022/10/11 01:41:26;;;;;;;12.90;9.63;;;;;;;8.34;73.35;97585.70;1659289;86;26062;-76
2022/10/11 01:43:58;;;;;;;13.53;9.40;;;;;;;8.38;73.27;97585.66;1659354;86;34890;-79
2022/10/11 01:46:29;;;;;;;13.80;10.10;;;;;;;8.44;73.18;97588.94;1659254;85;25883;-77
2022/10/11 01:49:00;;;;;;;12.60;9.38;;;;;;;8.46;73.16;97590.06;1659199;86;25839;-77
2022/10/11 01:51:33;;;;;;;14.03;9.68;;;;;;;8.44;73.09;97584.06;1659274;85;27380;-80
2022/10/11 01:54:14;;;;;;;13.95;10.10;;;;;;;8.45;73.09;97587.08;1660970;86;25956;-79
2022/10/11 01:56:57;;;;;;;13.48;8.90;;;;;;;8.40;73.08;97586.81;1664669;86;25763;-78
2022/10/11 02:00:10;;;;;;;13.25;9.05;;;;;;;8.34;73.07;97588.91;1664657;86;26048;-78
2022/10/11 02:02:54;;;;;;;11.35;8.20;;;;;;;8.31;73.16;97583.40;1664994;84;25849;-78
2022/10/11 02:05:26;;;;;;;11.70;8.93;;;;;;;8.35;73.32;97589.23;1699752;81;27401;-77
2022/10/11 02:08:00;;;;;;;9.90;8.70;;;;;;;8.37;73.16;97588.02;1759453;81;25258;-77
2022/10/11 02:10:35;;;;;;;12.50;8.25;;;;;;;8.42;73.16;97588.80;1721963;83;25870;-76
2022/10/11 02:13:13;;;;;;;16.95;8.75;;;;;;;8.46;73.08;97600.82;1703401;84;25796;-75
2022/10/11 02:15:42;;;;;;;11.83;7.85;;;;;;;8.47;73.06;97597.11;1645085;85;25560;-76
2022/10/11 02:18:14;;;;;;;10.45;8.45;;;;;;;8.43;73.04;97595.84;1644946;87;28243;-77
2022/10/11 02:20:43;;;;;;;12.85;8.40;;;;;;;8.40;73.04;97599.75;1556713;91;25763;-76
2022/10/11 02:23:36;;;;;;;13.28;8.83;;;;;;;8.40;73.06;97602.44;1556863;91;25882;-76
2022/10/11 02:26:05;;;;;;;11.43;8.05;;;;;;;8.37;72.98;97595.26;1557010;91;25828;-76
2022/10/11 02:28:36;;;;;;;11.85;8.38;;;;;;;8.36;72.99;97598.97;1557073;91;26032;-78
2022/10/11 02:31:05;;;;;;;13.60;9.45;;;;;;;8.34;72.99;97598.33;1556921;91;28244;-78
2022/10/11 02:33:46;;;;;;;14.25;8.88;;;;;;;8.32;73.00;97601.75;1556990;91;25779;-76
2022/10/11 02:36:23;;;;;;;12.13;8.98;;;;;;;8.30;72.90;97598.70;1508975;94;25942;-76
2022/10/11 02:38:54;;;;;;;15.10;9.28;;;;;;;8.33;72.95;97599.38;1439129;98;25921;-76
2022/10/11 02:41:36;;;;;;;10.75;8.45;;;;;;;8.32;72.99;97604.44;1440546;99;25857;-76
2022/10/11 02:44:11;;;;;;;12.23;9.23;;;;;;;8.26;72.98;97602.79;1438877;98;27522;-77
2022/10/11 02:46:40;;;;;;;15.70;10.50;;;;;;;8.26;73.03;97604.13;1438993;98;26174;-77
2022/10/11 02:49:08;;;;;;;13.15;8.93;;;;;;;8.29;73.06;97609.14;1440823;99;25946;-77
2022/10/11 02:51:36;;;;;;;13.15;9.10;;;;;;;8.30;73.04;97605.42;1423745;99;26546;-76
2022/10/11 02:54:02;;;;;;;12.75;9.50;;;;;;;8.33;73.03;97608.80;1439635;98;26259;-78
2022/10/11 02:56:29;;;;;;;16.10;9.23;;;;;;;8.33;73.09;97608.80;1436814;98;27547;-77
2022/10/11 02:58:56;;;;;;;17.10;9.93;;;;;;;8.30;73.01;97607.28;1437015;98;26552;-76
2022/10/11 03:01:22;;;;;;;14.50;9.10;;;;;;;8.31;73.04;97617.02;1436997;98;25847;-78
2022/10/11 03:03:49;;;;;;;14.05;9.15;;;;;;;8.31;73.04;97611.64;1436934;98;26524;-76
2022/10/11 03:06:16;;;;;;;12.90;9.10;;;;;;;8.30;73.04;97613.50;1432729;99;25985;-76
2022/10/11 03:08:43;;;;;;;10.82;8.80;;;;;;;8.30;73.01;97617.53;1402458;101;27428;-75
2022/10/11 03:11:09;;;;;;;12.95;8.75;;;;;;;8.28;73.00;97608.81;1409465;100;25913;-76
2022/10/11 03:13:36;;;;;;;12.07;8.65;;;;;;;8.29;73.05;97615.03;1438915;99;25389;-77
2022/10/11 03:16:02;;;;;;;12.28;8.48;;;;;;;8.26;73.01;97617.58;1441740;97;25872;-75
2022/10/11 03:18:29;;;;;;;13.35;9.03;;;;;;;8.23;73.05;97617.95;1537326;92;25888;-76
2022/10/11 03:20:56;;;;;;;14.78;9.13;;;;;;;8.22;73.03;97615.45;1549603;92;27589;-76
2022/10/11 03:23:22;;;;;;;13.65;8.45;;;;;;;8.22;73.12;97618.14;1559926;88;25829;-76
2022/10/11 03:25:50;;;;;;;12.70;9.30;;;;;;;8.22;73.18;97621.67;1600195;88;25886;-78
2022/10/11 03:28:17;;;;;;;12.40;8.43;;;;;;;8.20;73.13;97627.77;1600106;88;25940;-78
2022/10/11 03:30:47;;;;;;;10.85;8.70;;;;;;;8.19;73.17;97631.48;1600334;89;26082;-76
2022/10/11 03:33:14;;;;;;;11.28;8.68;;;;;;;8.19;73.24;97630.14;1627066;87;27398;-76
2022/10/11 03:35:46;;;;;;;13.72;9.10;;;;;;;8.16;73.27;97625.13;1684871;82;25976;-76
2022/10/11 03:38:18;;;;;;;14.73;8.88;;;;;;;8.16;73.27;97633.71;1731233;82;25784;-76
2022/10/11 03:40:45;;;;;;;13.13;9.60;;;;;;;8.15;73.33;97631.53;1681617;85;25820;-75
2022/10/11 03:43:11;;;;;;;12.00;9.23;;;;;;;8.14;73.32;97629.86;1681610;85;25871;-75
2022/10/11 03:45:41;;;;;;;11.95;8.95;;;;;;;8.16;73.38;97633.71;1681255;85;27447;-76
2022/10/11 03:48:07;;;;;;;15.45;9.98;;;;;;;8.17;73.42;97632.18;1681254;85;26889;-76
2022/10/11 03:50:34;;;;;;;14.40;10.93;;;;;;;8.15;73.42;97630.19;1681418;85;25830;-76
2022/10/11 03:53:00;;;;;;;14.07;10.00;;;;;;;8.16;73.49;97642.61;1681520;85;25893;-76
2022/10/11 03:55:27;;;;;;;15.80;10.38;;;;;;;8.16;73.59;97633.20;1706839;83;26520;-78
2022/10/11 03:57:53;;;;;;;13.22;9.58;;;;;;;8.14;73.66;97639.27;1678708;85;27446;-78
2022/10/11 04:00:21;;;;;;;14.80;10.30;;;;;;;8.17;73.67;97640.25;1666291;84;25814;-77
2022/10/11 04:02:48;;;;;;;19.40;11.05;;;;;;;8.16;73.70;97642.61;1634479;87;26894;-76
2022/10/11 04:05:15;;;;;;;14.35;11.12;;;;;;;8.19;73.75;97636.03;1634335;87;25846;-77
2022/10/11 04:07:41;;;;;;;14.53;9.73;;;;;;;8.19;73.78;97635.52;1634297;87;25773;-75
2022/10/11 04:10:08;;;;;;;14.83;11.10;;;;;;;8.22;73.87;97638.31;1634414;87;27467;-76
2022/10/11 04:12:37;;;;;;;12.90;10.13;;;;;;;8.20;73.89;97639.88;1662778;86;25908;-75
2022/10/11 04:15:06;;;;;;;18.05;10.50;;;;;;;8.20;73.94;97641.22;1662671;86;25750;-75
2022/10/11 04:17:32;;;;;;;17.60;11.15;;;;;;;8.24;73.95;97646.52;1662726;86;25872;-77
2022/10/11 04:19:59;;;;;;;23.45;11.95;;;;;;;8.26;73.94;97649.85;1662441;86;25762;-77
2022/10/11 04:22:26;;;;;;;20.32;11.75;;;;;;;8.28;73.99;97649.16;1662711;86;27563;-77
2022/10/11 04:24:53;;;;;;;23.25;14.25;;;;;;;8.30;73.99;97648.45;1662572;86;25820;-81
2022/10/11 04:27:19;;;;;;;22.45;13.75;;;;;;;8.33;73.95;97651.83;1662674;86;25876;-76
2022/10/11 04:29:46;;;;;;;33.02;18.37;;;;;;;8.34;73.98;97650.77;1662579;86;25727;-76
2022/10/11 04:32:12;;;;;;;22.82;16.30;;;;;;;8.36;74.06;97646.05;1662751;86;25529;-76
2022/10/11 04:34:39;;;;;;;26.12;17.02;;;;;;;8.34;74.10;97648.92;1662526;86;28379;-76
2022/10/11 04:37:06;;;;;;;31.25;20.65;;;;;;;8.35;74.16;97648.41;1662536;86;25727;-75
2022/10/11 04:39:32;;;;;;;37.55;22.35;;;;;;;8.33;74.18;97649.14;1662696;86;25884;-77
2022/10/11 04:41:58;;;;;;;39.65;24.10;;;;;;;8.32;74.31;97653.69;1662642;86;25825;-76
2022/10/11 04:44:25;;;;;;;45.25;24.90;;;;;;;8.32;74.37;97656.38;1680352;84;25779;-76
2022/10/11 04:46:52;;;;;;;46.23;29.87;;;;;;;8.32;74.43;97656.88;1734072;82;28118;-78
2022/10/11 04:49:18;;;;;;;42.15;26.82;;;;;;;8.35;74.46;97657.83;1719032;83;25310;-76
2022/10/11 04:51:45;;;;;;;35.63;20.75;;;;;;;8.34;74.53;97663.71;1755412;81;26790;-78
2022/10/11 04:54:12;;;;;;;34.53;19.70;;;;;;;8.37;74.59;97661.16;1755169;81;25670;-77
2022/10/11 04:56:38;;;;;;;25.55;15.13;;;;;;;8.33;74.62;97659.89;1754942;81;25847;-77
2022/10/11 04:59:06;;;;;;;21.80;13.30;;;;;;;8.34;74.72;97665.56;1754930;81;46550;-78
2022/10/11 05:01:33;;;;;;;23.10;14.58;;;;;;;8.35;74.85;97665.89;1755177;81;26026;-76
2022/10/11 05:03:59;;;;;;;24.30;15.55;;;;;;;8.31;74.79;97664.08;1755327;81;25773;-77
2022/10/11 05:06:26;;;;;;;28.40;17.42;;;;;;;8.35;74.92;97669.92;1755008;81;25808;-77
2022/10/11 05:08:52;;;;;;;21.33;16.10;;;;;;;8.33;75.04;97671.48;1755341;81;25720;-76
2022/10/11 05:11:19;;;;;;;23.95;15.32;;;;;;;8.33;75.07;97671.48;1755055;81;28403;-76
2022/10/11 05:13:46;;;;;;;26.05;15.58;;;;;;;8.35;75.14;97671.27;1755263;81;25980;-76
2022/10/11 05:16:14;;;;;;;22.80;15.28;;;;;;;8.38;75.14;97673.08;1755325;81;25694;-77
2022/10/11 05:18:40;;;;;;;60.25;38.90;;;;;;;8.43;75.23;97679.23;1755361;81;25844;-76
2022/10/11 05:21:21;;;;;;;173.38;98.80;;;;;;;8.41;75.33;97676.73;1755369;81;25758;-78
2022/10/11 05:23:49;;;;;;;110.25;61.88;;;;;;;8.38;75.38;97679.80;1755067;81;27493;-76
2022/10/11 05:26:17;;;;;;;136.62;71.20;;;;;;;8.42;75.57;97686.98;1755106;81;26256;-78
2022/10/11 05:28:45;;;;;;;139.72;67.22;;;;;;;8.45;75.52;97695.48;1755312;81;25274;-78
2022/10/11 05:31:12;;;;;;;127.32;66.02;;;;;;;8.47;75.58;97693.95;1755297;81;25700;-76
2022/10/11 05:33:39;;;;;;;88.75;40.55;;;;;;;8.50;75.72;97697.61;1754983;81;25734;-76
2022/10/11 05:36:06;;;;;;;56.20;29.50;;;;;;;8.53;75.74;97706.66;1755151;81;27516;-79
2022/10/11 05:38:33;;;;;;;36.33;21.73;;;;;;;8.55;75.81;97704.11;1755136;81;25785;-75
2022/10/11 05:41:01;;;;;;;33.28;18.52;;;;;;;8.56;75.93;97703.59;1755150;81;25753;-77
2022/10/11 05:43:29;;;;;;;35.95;21.62;;;;;;;8.60;76.00;97712.92;1755355;81;25859;-77
2022/10/11 05:45:57;;;;;;;36.70;21.10;;;;;;;8.63;76.09;97709.86;1755233;81;25706;-76
2022/10/11 05:48:25;;;;;;;34.45;21.97;;;;;;;8.63;76.16;97717.42;1755387;81;27404;-76
2022/10/11 05:50:54;;;;;;;31.07;19.90;;;;;;;8.66;76.17;97716.22;1755115;81;25730;-76
2022/10/11 05:53:21;;;;;;;50.48;31.20;;;;;;;8.70;76.18;97717.48;1750828;81;25690;-76
2022/10/11 05:55:47;;;;;;;38.50;26.05;;;;;;;8.73;76.21;97717.09;1755006;81;25741;-75
2022/10/11 05:58:16;;;;;;;32.28;20.57;;;;;;;8.76;76.21;97717.23;1755495;81;25740;-76
2022/10/11 06:00:43;;;;;;;25.27;17.05;;;;;;;8.79;76.30;97720.90;1755043;81;27446;-75
2022/10/11 06:03:11;;;;;;;27.25;15.98;;;;;;;8.81;76.50;97729.11;1755206;81;25794;-77
2022/10/11 06:05:39;;;;;;;28.98;15.45;;;;;;;8.82;76.50;97732.09;1755205;81;25876;-75
2022/10/11 06:08:07;;;;;;;28.20;15.80;;;;;;;8.86;76.50;97734.73;1755169;81;26502;-76
2022/10/11 06:10:35;;;;;;;30.30;16.30;;;;;;;8.90;76.48;97737.37;1754995;81;25772;-76
2022/10/11 06:13:02;;;;;;;27.82;16.90;;;;;;;8.94;76.46;97735.94;1755420;81;27976;-75
2022/10/11 06:15:29;;;;;;;27.67;17.00;;;;;;;8.98;76.53;97741.27;1755404;81;25691;-75
2022/10/11 06:17:58;;;;;;;26.52;16.60;;;;;;;8.99;76.53;97745.63;1755168;81;25718;-75
2022/10/11 06:20:25;;;;;;;26.40;16.85;;;;;;;9.01;76.76;97753.00;1755189;81;25765;-75
2022/10/11 06:22:52;;;;;;;23.62;17.30;;;;;;;9.03;76.88;97754.99;1755219;81;25469;-76
2022/10/11 06:25:19;;;;;;;24.67;17.42;;;;;;;9.08;76.98;97752.22;1754908;81;27572;-76
2022/10/11 06:27:45;;;;;;;26.17;17.40;;;;;;;9.11;76.92;97751.33;1755129;81;25737;-75
2022/10/11 06:30:12;;;;;;;26.10;17.73;;;;;;;9.13;77.08;97754.66;1755194;81;25693;-75
2022/10/11 06:32:39;;;;;;;24.52;16.70;;;;;;;9.16;77.11;97761.53;1754864;81;25795;-76
2022/10/11 06:35:07;;;;;;;27.52;17.40;;;;;;;9.19;77.14;97766.50;1755229;81;25957;-76
2022/10/11 06:37:34;;;;;;;23.25;17.50;;;;;;;9.23;77.14;97768.63;1758666;81;28194;-77
2022/10/11 06:40:00;;;;;;;28.42;16.62;;;;;;;9.27;77.17;97769.92;1759155;81;25749;-77
2022/10/11 06:42:27;;;;;;;28.00;16.23;;;;;;;9.32;77.12;97771.50;1759341;81;25867;-75
2022/10/11 06:44:54;;;;;;;25.45;16.65;;;;;;;9.36;77.09;97781.38;1759309;81;25716;-75
2022/10/11 06:47:20;;;;;;;24.50;17.05;;;;;;;9.39;77.20;97779.65;1759226;81;25491;-75
2022/10/11 06:49:47;;;;;;;27.45;16.45;;;;;;;9.41;77.28;97780.30;1758986;81;27341;-75
2022/10/11 06:52:14;;;;;;;29.15;18.07;;;;;;;9.44;77.32;97787.97;1759229;81;25738;-75
2022/10/11 06:54:40;;;;;;;31.82;19.87;;;;;;;9.43;77.21;97786.30;1759237;81;25732;-75
2022/10/11 06:57:07;;;;;;;30.55;19.57;;;;;;;9.46;77.16;97789.95;1758900;81;25745;-75
2022/10/11 06:59:33;;;;;;;32.13;21.00;;;;;;;9.46;77.11;97783.73;1758955;81;25753;-75
2022/10/11 07:02:00;;;;;;;39.10;21.55;;;;;;;9.46;77.14;97789.95;1759336;81;28255;-76
2022/10/11 07:04:27;;;;;;;30.12;21.55;;;;;;;9.48;77.07;97789.25;1759220;81;25672;-75
2022/10/11 07:06:54;;;;;;;33.25;22.60;;;;;;;9.50;77.10;97789.89;1759444;81;25756;-74
2022/10/11 07:09:20;;;;;;;32.33;20.85;;;;;;;9.53;77.21;97796.25;1759471;81;25716;-74
2022/10/11 07:11:47;;;;;;;30.43;19.52;;;;;;;9.54;77.30;97803.28;1759803;80;25732;-75
2022/10/11 07:14:14;;;;;;;34.65;21.23;;;;;;;9.56;77.38;97801.73;1759233;80;27456;-75
2022/10/11 07:16:41;;;;;;;27.90;20.17;;;;;;;9.60;77.42;97809.25;1759613;81;25786;-75
2022/10/11 07:19:08;;;;;;;34.13;20.43;;;;;;;9.64;77.42;97813.23;1759790;80;25763;-75
2022/10/11 07:21:35;;;;;;;29.75;20.00;;;;;;;9.69;77.43;97809.41;1759794;81;25787;-75
2022/10/11 07:24:03;;;;;;;28.35;19.55;;;;;;;9.73;77.52;97818.79;1759416;81;25964;-75
2022/10/11 07:26:30;;;;;;;29.32;19.92;;;;;;;9.79;77.59;97823.06;1759772;81;28371;-75
2022/10/11 07:28:57;;;;;;;25.32;19.15;;;;;;;9.82;77.60;97818.63;1759351;81;25939;-74
2022/10/11 07:31:25;;;;;;;30.27;19.25;;;;;;;9.87;77.60;97826.98;1759846;81;25742;-75
2022/10/11 07:33:52;;;;;;;28.62;19.07;;;;;;;9.92;77.65;97827.20;1759700;80;26349;-75
2022/10/11 07:36:19;;;;;;;30.30;20.45;;;;;;;9.95;77.70;97821.42;1759818;80;25771;-75
2022/10/11 07:38:47;;;;;;;29.32;20.00;;;;;;;10.00;77.70;97827.07;1759644;81;28218;-75
2022/10/11 07:41:13;;;;;;;27.95;19.67;;;;;;;10.04;77.72;97835.06;1755373;81;25669;-78
2022/10/11 07:43:42;;;;;;;28.80;20.27;;;;;;;10.06;77.74;97835.19;1759880;81;25725;-76
2022/10/11 07:46:10;;;;;;;29.07;19.45;;;;;;;10.09;77.79;97834.80;1759731;81;25759;-77
2022/10/11 07:48:37;;;;;;;29.15;21.25;;;;;;;10.15;77.75;97839.91;1759660;80;25745;-76
2022/10/11 07:51:09;;;;;;;31.42;21.52;;;;;;;10.19;77.68;97837.69;1759362;80;28244;-75
2022/10/11 07:53:45;;;;;;;32.35;21.90;;;;;;;10.23;77.65;97845.20;1660905;85;25775;-77
2022/10/11 07:56:14;;;;;;;34.73;24.25;;;;;;;10.27;77.63;97842.40;1659974;85;25924;-76
2022/10/11 07:58:42;;;;;;;31.87;24.85;;;;;;;10.33;77.68;97847.53;1682073;85;26002;-76
2022/10/11 08:01:10;;;;;;;43.10;29.15;;;;;;;10.35;77.94;97849.01;1649003;87;25791;-76
2022/10/11 08:03:38;;;;;;;41.68;30.62;;;;;;;10.38;78.12;97847.78;1636050;87;28360;-75
2022/10/11 08:06:07;;;;;;;44.30;30.55;;;;;;;10.40;78.10;97851.92;1634080;87;26180;-77
2022/10/11 08:08:34;;;;;;;45.23;32.03;;;;;;;10.44;78.15;97854.55;1634058;87;25796;-76
2022/10/11 08:11:01;;;;;;;47.80;32.95;;;;;;;10.46;78.26;97846.26;1634045;87;25821;-76
2022/10/11 08:13:28;;;;;;;50.70;35.70;;;;;;;10.50;78.35;97844.00;1634153;87;25743;-76
2022/10/11 08:15:55;;;;;;;40.30;29.63;;;;;;;10.55;78.47;97841.52;1634128;87;27335;-76
2022/10/11 08:18:21;;;;;;;38.88;27.62;;;;;;;10.61;78.47;97839.38;1634022;87;25890;-75
2022/10/11 08:20:48;;;;;;;35.83;25.02;;;;;;;10.64;78.55;97838.95;1634087;87;25769;-77
2022/10/11 08:23:19;;;;;;;35.80;25.48;;;;;;;10.68;78.46;97843.77;1634113;87;26385;-76
2022/10/11 08:25:47;;;;;;;37.55;25.92;;;;;;;10.72;78.42;97842.33;1633987;87;25741;-77
2022/10/11 08:28:16;;;;;;;41.70;27.45;;;;;;;10.77;78.39;97849.30;1633938;87;27403;-77
2022/10/11 08:30:52;;;;;;;35.03;26.20;;;;;;;10.82;78.47;97843.30;1657527;84;26410;-76
2022/10/11 08:33:21;;;;;;;36.98;26.97;;;;;;;10.87;78.53;97850.26;1686118;84;25744;-77
2022/10/11 08:35:49;;;;;;;40.00;26.95;;;;;;;10.91;78.49;97846.64;1669070;85;26451;-76
2022/10/11 08:38:16;;;;;;;38.50;26.20;;;;;;;10.96;78.47;97849.06;1668700;85;25865;-76
2022/10/11 08:40:54;;;;;;;43.38;27.67;;;;;;;11.03;78.51;97851.25;1669010;85;28196;-76
2022/10/11 08:43:55;;;;;;;37.63;26.37;;;;;;;11.09;78.60;97859.91;1643239;87;25803;-77
2022/10/11 08:49:00;;;;;;;35.08;25.43;;;;;;;11.17;78.54;97862.42;1565751;91;25797;-76
2022/10/11 08:51:47;;;;;;;36.40;25.15;;;;;;;11.23;78.58;97855.90;1565495;91;25790;-77
2022/10/11 08:54:38;;;;;;;33.48;24.30;;;;;;;11.29;78.61;97853.72;1565737;91;27443;-76
2022/10/11 08:57:07;;;;;;;32.25;23.38;;;;;;;11.36;78.55;97857.25;1565370;90;25740;-76
2022/10/11 08:59:51;;;;;;;36.08;23.85;;;;;;;11.43;78.63;97856.76;1565703;91;25797;-76
2022/10/11 09:02:58;;;;;;;31.40;22.37;;;;;;;11.51;78.59;97852.50;1539234;92;25852;-76
2022/10/11 09:05:34;;;;;;;27.70;20.00;;;;;;;11.60;78.61;97854.47;1538923;92;25631;-75
2022/10/11 09:08:15;;;;;;;26.10;19.77;;;;;;;11.67;78.60;97854.81;1525116;93;28242;-76
2022/10/11 09:10:59;;;;;;;27.32;20.55;;;;;;;11.73;78.47;97857.19;1523814;93;26066;-76
2022/10/11 09:14:21;;;;;;;25.37;18.60;;;;;;;11.80;78.33;97848.08;1524990;93;25867;-76
2022/10/11 09:17:20;;;;;;;26.33;17.13;;;;;;;11.88;78.29;97849.22;1525380;94;25899;-76
2022/10/11 09:20:26;;;;;;;23.62;17.92;;;;;;;11.94;78.02;97849.44;1525157;93;25759;-76
2022/10/11 09:23:12;;;;;;;25.95;18.17;;;;;;;11.99;77.73;97853.16;1477202;96;27353;-75
2022/10/11 09:26:11;;;;;;;23.47;17.55;;;;;;;12.04;77.74;97859.31;1477276;96;25866;-77
2022/10/11 09:29:18;;;;;;;26.20;17.48;;;;;;;12.05;78.03;97855.56;1481618;96;25864;-76
2022/10/11 09:31:48;;;;;;;24.32;17.52;;;;;;;12.06;78.06;97860.77;1469331;97;25917;-76
2022/10/11 09:34:15;;;;;;;25.30;18.65;;;;;;;12.08;78.11;97861.36;1454231;97;25854;-76
2022/10/11 09:37:16;;;;;;;28.38;18.45;;;;;;;12.11;78.18;97859.60;1471760;97;27526;-76
2022/10/11 09:39:56;;;;;;;24.37;18.40;;;;;;;12.13;78.17;97859.39;1486838;94;25878;-77
2022/10/11 09:42:23;;;;;;;28.07;19.62;;;;;;;12.14;78.06;97855.65;1505712;95;25830;-76
2022/10/11 09:44:51;;;;;;;27.15;20.02;;;;;;;12.18;78.11;97860.97;1507105;95;26542;-76
2022/10/11 09:47:23;;;;;;;27.22;18.07;;;;;;;12.24;78.11;97865.52;1506983;95;25818;-76
2022/10/11 09:50:19;;;;;;;21.93;15.78;;;;;;;12.32;78.03;97859.87;1462711;98;27423;-76
2022/10/11 09:52:56;;;;;;;25.05;18.00;;;;;;;12.35;77.96;97859.45;1473314;96;26546;-75
2022/10/11 09:55:34;;;;;;;26.20;16.48;;;;;;;12.42;77.63;97863.00;1480966;96;25431;-76
2022/10/11 09:58:02;;;;;;;26.75;17.00;;;;;;;12.46;77.41;97858.80;1481249;93;25838;-77
2022/10/11 10:00:34;;;;;;;24.72;19.55;;;;;;;12.48;77.37;97859.43;1564348;91;25894;-76
2022/10/11 10:03:04;;;;;;;29.90;21.52;;;;;;;12.54;77.58;97869.42;1567409;91;27429;-76
2022/10/11 10:05:36;;;;;;;34.85;20.90;;;;;;;12.54;77.01;97861.30;1605330;88;25861;-76
2022/10/11 10:08:18;;;;;;;26.68;19.55;;;;;;;12.59;77.04;97864.19;1617915;88;26017;-78
2022/10/11 10:11:02;;;;;;;29.20;21.20;;;;;;;12.65;77.01;97865.75;1617870;88;25794;-77
2022/10/11 10:13:54;;;;;;;31.23;20.88;;;;;;;12.71;77.09;97865.71;1617859;88;25901;-76
2022/10/11 10:16:28;;;;;;;30.52;20.95;;;;;;;12.78;76.90;97866.53;1585237;90;28300;-77
2022/10/11 10:19:06;;;;;;;31.75;21.05;;;;;;;12.85;76.58;97866.50;1584700;90;26608;-77
2022/10/11 10:21:48;;;;;;;33.83;22.75;;;;;;;12.91;76.39;97871.07;1584708;90;25965;-76
2022/10/11 10:24:38;;;;;;;34.95;22.37;;;;;;;12.94;76.24;97862.49;1583495;90;25825;-76
2022/10/11 10:27:19;;;;;;;32.23;22.40;;;;;;;12.97;76.15;97869.67;1553340;92;26517;-77
2022/10/11 10:30:10;;;;;;;38.50;23.60;;;;;;;13.03;76.13;97869.35;1553638;92;27411;-76
2022/10/11 10:32:58;;;;;;;39.55;24.07;;;;;;;13.07;76.22;97863.78;1532536;93;25834;-75
2022/10/11 10:35:36;;;;;;;38.00;24.85;;;;;;;13.12;76.12;97870.77;1532502;93;25994;-75
2022/10/11 10:38:16;;;;;;;38.83;25.52;;;;;;;13.15;75.94;97866.83;1532497;93;25946;-75
2022/10/11 10:40:50;;;;;;;35.78;26.23;;;;;;;13.18;75.75;97867.20;1532595;93;25873;-75
2022/10/11 10:43:21;;;;;;;41.42;27.15;;;;;;;13.18;75.77;97865.84;1532532;93;27496;-75
2022/10/11 10:46:18;;;;;;;35.83;26.07;;;;;;;13.22;75.98;97868.44;1536947;90;25897;-75
2022/10/11 10:49:13;;;;;;;39.27;26.02;;;;;;;13.25;76.24;97863.95;1578895;90;25956;-75
2022/10/11 10:52:04;;;;;;;38.70;26.12;;;;;;;13.33;76.31;97870.98;1580760;90;25773;-75
2022/10/11 10:54:59;;;;;;;39.98;25.43;;;;;;;13.39;76.42;97872.01;1558601;91;25850;-75
2022/10/11 10:57:58;;;;;;;34.15;24.12;;;;;;;13.41;76.15;97867.17;1580358;86;73054;-86
2022/10/11 11:00:29;;;;;;;37.67;24.80;;;;;;;13.45;76.23;97863.81;1617956;86;26264;-86
2022/10/11 11:03:11;;;;;;;29.18;22.30;;;;;;;13.53;76.20;97864.91;1635933;86;25864;-86
2022/10/11 11:06:00;;;;;;;32.28;22.30;;;;;;;13.59;76.18;97864.56;1614681;86;25901;-86
2022/10/11 11:09:04;;;;;;;30.65;21.30;;;;;;;13.64;76.28;97868.82;1631909;86;25727;-87
2022/10/11 11:11:45;;;;;;;28.35;20.77;;;;;;;13.67;75.93;97872.42;1678547;84;28337;-86
2022/10/11 11:14:35;;;;;;;34.05;21.35;;;;;;;13.68;75.90;97869.50;1673446;84;25797;-87
2022/10/11 11:17:27;;;;;;;27.42;20.02;;;;;;;13.73;75.64;97871.56;1658696;84;25782;-87
2022/10/11 11:20:14;;;;;;;26.00;16.15;;;;;;;13.78;75.42;97872.24;1673736;84;26440;-86
2022/10/11 11:23:17;;;;;;;20.75;14.15;;;;;;;13.84;75.34;97880.34;1673309;84;25827;-87
2022/10/11 11:26:05;;;;;;;22.75;13.45;;;;;;;13.90;74.80;97878.62;1673065;84;28195;-86
2022/10/11 11:28:54;;;;;;;19.77;14.10;;;;;;;13.98;74.57;97871.05;1673437;84;25653;-86
2022/10/11 11:31:50;;;;;;;21.70;16.32;;;;;;;14.05;74.54;97879.12;1673561;84;25416;-86
2022/10/11 11:34:46;;;;;;;22.65;17.00;;;;;;;14.05;74.49;97874.53;1665303;84;25698;-86
2022/10/11 11:37:26;;;;;;;23.40;14.30;;;;;;;14.10;74.75;97875.76;1673543;85;25830;-86
2022/10/11 11:39:57;;;;;;;18.70;14.45;;;;;;;14.17;74.61;97873.80;1673550;84;27554;-86
2022/10/11 11:42:40;;;;;;;20.90;13.28;;;;;;;14.24;74.26;97868.63;1673494;84;25888;-86
2022/10/11 11:45:28;;;;;;;18.07;12.75;;;;;;;14.30;73.92;97872.33;1671229;84;25723;-87
2022/10/11 11:48:15;;;;;;;17.77;12.90;;;;;;;14.35;73.56;97868.42;1679401;82;25778;-86
2022/10/11 11:50:47;;;;;;;19.12;12.65;;;;;;;14.39;73.14;97870.97;1724127;81;26475;-85
2022/10/11 11:53:18;;;;;;;16.07;12.40;;;;;;;14.41;72.96;97867.55;1759354;78;28160;-85
2022/10/11 11:55:54;;;;;;;18.10;13.30;;;;;;;14.44;72.84;97868.45;1794109;79;25701;-87